Time;durP1;ratioP1;P1;durP2;ratioP2;P2;SDS_P1;SDS_P2;PMS_P1;PMS_P2;Temp;Humidity;BMP_temperature;BMP_pressure;BME280_temperature;BME280_humidity;BME280_pressure;Samples;Min_cycle;Max_cycle;Signal;HPM_P1;HPM_P2
2024/04/08 00:01:27;;;;;;;0.00;0.00;;;11.50;81.90;;;;;;5438580;26;20518;-85
2024/04/08 00:03:53;;;;;;;0.10;0.10;;;11.50;81.80;;;;;;5439062;26;20011;-84
2024/04/08 00:06:18;;;;;;;0.00;0.00;;;11.50;81.60;;;;;;5386940;26;20011;-85
2024/04/08 00:08:44;;;;;;;0.10;0.10;;;11.50;81.70;;;;;;5386111;26;20011;-85
2024/04/08 00:11:10;;;;;;;0.10;0.10;;;11.50;81.80;;;;;;5366248;26;20384;-85
2024/04/08 00:13:39;;;;;;;0.10;0.10;;;11.50;81.80;;;;;;5422757;26;20053;-85
2024/04/08 00:16:06;;;;;;;0.10;0.10;;;11.50;81.80;;;;;;5376024;26;20074;-85
2024/04/08 00:18:32;;;;;;;0.00;0.00;;;11.50;81.80;;;;;;5387017;26;20007;-85
2024/04/08 00:21:05;;;;;;;0.10;0.10;;;11.50;81.70;;;;;;5355556;26;19996;-84
2024/04/08 00:23:31;;;;;;;0.10;0.10;;;11.40;81.80;;;;;;5385382;26;20004;-84
2024/04/08 00:26:05;;;;;;;0.10;0.10;;;11.40;81.80;;;;;;5385896;26;20011;-85
2024/04/08 00:28:33;;;;;;;0.00;0.00;;;11.40;81.80;;;;;;5355759;26;19996;-85
2024/04/08 00:31:03;;;;;;;0.00;0.00;;;11.40;81.80;;;;;;5374725;26;20361;-85
2024/04/08 00:33:31;;;;;;;0.00;0.00;;;11.40;81.70;;;;;;5386941;26;19997;-85
2024/04/08 00:35:57;;;;;;;0.00;0.00;;;11.30;81.80;;;;;;5355391;26;20073;-85
2024/04/08 00:38:23;;;;;;;0.08;0.08;;;11.30;81.90;;;;;;5386430;26;19992;-85
2024/04/08 00:40:48;;;;;;;0.00;0.00;;;11.30;82.00;;;;;;5386699;26;20008;-84
2024/04/08 00:43:14;;;;;;;0.10;0.10;;;11.20;82.10;;;;;;5406816;26;20088;-84
2024/04/08 00:45:46;;;;;;;0.10;0.10;;;11.20;82.10;;;;;;5390602;26;19999;-85
2024/04/08 00:48:14;;;;;;;0.10;0.10;;;11.20;82.20;;;;;;5419289;26;19996;-84
2024/04/08 00:50:44;;;;;;;0.10;0.10;;;11.10;82.20;;;;;;5355358;26;20000;-85
2024/04/08 00:53:11;;;;;;;0.00;0.00;;;11.10;82.30;;;;;;5355658;26;20455;-85
2024/04/08 00:55:38;;;;;;;0.10;0.10;;;11.10;82.50;;;;;;5385822;26;20447;-85
2024/04/08 00:58:04;;;;;;;0.10;0.10;;;11.00;82.50;;;;;;5386767;26;20011;-85
2024/04/08 01:00:30;;;;;;;0.10;0.10;;;10.90;82.80;;;;;;5387058;26;20012;-84
2024/04/08 01:02:58;;;;;;;0.10;0.10;;;10.90;82.80;;;;;;5400847;26;19999;-85
2024/04/08 01:05:24;;;;;;;0.10;0.10;;;10.90;82.90;;;;;;5388043;26;20092;-85
2024/04/08 01:07:50;;;;;;;0.10;0.10;;;10.90;83.00;;;;;;5401934;26;20003;-85
2024/04/08 01:10:17;;;;;;;0.10;0.10;;;10.80;82.90;;;;;;5421434;26;20049;-85
2024/04/08 01:12:42;;;;;;;0.10;0.10;;;10.80;83.20;;;;;;5421690;26;20007;-85
2024/04/08 01:15:08;;;;;;;0.00;0.00;;;10.80;83.10;;;;;;5382311;26;20004;-85
2024/04/08 01:17:34;;;;;;;0.10;0.10;;;10.80;83.10;;;;;;5386006;26;20338;-85
2024/04/08 01:20:00;;;;;;;0.00;0.00;;;10.80;83.20;;;;;;5385519;26;20011;-85
2024/04/08 01:22:30;;;;;;;0.00;0.00;;;10.80;83.10;;;;;;5353949;26;20014;-85
2024/04/08 01:24:57;;;;;;;0.10;0.10;;;10.80;83.20;;;;;;5367872;26;19995;-84
2024/04/08 01:27:23;;;;;;;0.10;0.10;;;10.80;83.20;;;;;;5406331;26;20004;-85
2024/04/08 01:29:48;;;;;;;0.08;0.08;;;10.80;83.00;;;;;;5394044;26;20338;-85
2024/04/08 01:32:14;;;;;;;0.00;0.00;;;10.70;83.00;;;;;;5399635;26;19992;-85
2024/04/08 01:34:39;;;;;;;0.10;0.10;;;10.70;83.00;;;;;;5413243;26;20018;-84
2024/04/08 01:37:05;;;;;;;0.10;0.10;;;10.70;83.00;;;;;;5385322;26;20073;-85
2024/04/08 01:39:30;;;;;;;0.00;0.00;;;10.70;82.90;;;;;;5404358;26;20011;-85
2024/04/08 01:41:56;;;;;;;0.08;0.08;;;10.70;83.00;;;;;;5420720;26;19999;-85
2024/04/08 01:44:22;;;;;;;0.00;0.00;;;10.60;83.10;;;;;;5421285;26;19999;-85
2024/04/08 01:46:47;;;;;;;0.10;0.10;;;10.50;83.30;;;;;;5389455;26;20015;-85
2024/04/08 01:49:13;;;;;;;0.00;0.00;;;10.40;83.40;;;;;;5392006;26;19996;-84
2024/04/08 01:51:39;;;;;;;0.10;0.10;;;10.50;83.60;;;;;;5404117;26;20000;-85
2024/04/08 01:54:05;;;;;;;0.00;0.00;;;10.40;83.50;;;;;;5419583;26;20010;-84
2024/04/08 01:56:31;;;;;;;0.10;0.10;;;10.30;83.60;;;;;;5410154;26;20015;-85
2024/04/08 01:58:57;;;;;;;0.10;0.10;;;10.30;83.80;;;;;;5353831;26;20326;-85
2024/04/08 02:01:22;;;;;;;0.10;0.10;;;10.30;83.70;;;;;;5416342;26;20003;-85
2024/04/08 02:03:48;;;;;;;0.00;0.00;;;10.30;83.50;;;;;;5401260;26;20322;-85
2024/04/08 02:06:14;;;;;;;0.00;0.00;;;10.30;83.70;;;;;;5385456;26;20000;-85
2024/04/08 02:08:39;;;;;;;0.10;0.10;;;10.30;83.70;;;;;;5354518;26;20143;-85
2024/04/08 02:11:05;;;;;;;0.10;0.10;;;10.30;83.70;;;;;;5353394;26;20000;-85
2024/04/08 02:13:31;;;;;;;0.10;0.10;;;10.30;83.70;;;;;;5354593;26;20019;-85
2024/04/08 02:15:56;;;;;;;0.00;0.00;;;10.20;83.90;;;;;;5353503;26;20000;-85
2024/04/08 02:18:22;;;;;;;0.00;0.00;;;10.20;84.00;;;;;;5382748;26;19995;-85
2024/04/08 02:20:47;;;;;;;0.10;0.10;;;10.20;84.20;;;;;;5420358;26;20011;-85
2024/04/08 02:23:13;;;;;;;0.10;0.10;;;10.20;84.10;;;;;;5371041;26;20000;-85
2024/04/08 02:25:47;;;;;;;0.10;0.10;;;10.20;84.20;;;;;;5354229;26;20078;-85
2024/04/08 02:28:12;;;;;;;0.10;0.10;;;10.20;84.10;;;;;;5354591;26;20019;-85
2024/04/08 02:30:38;;;;;;;0.10;0.10;;;10.20;84.10;;;;;;5432458;26;20003;-85
2024/04/08 02:33:05;;;;;;;0.10;0.10;;;10.20;84.00;;;;;;5405672;26;19996;-85
2024/04/08 02:35:35;;;;;;;0.10;0.10;;;10.20;83.90;;;;;;5368984;26;20004;-85
2024/04/08 02:38:04;;;;;;;0.10;0.10;;;10.20;83.80;;;;;;5384537;26;20012;-85
2024/04/08 02:40:29;;;;;;;0.10;0.10;;;10.20;83.80;;;;;;5385215;26;20439;-86
2024/04/08 02:42:55;;;;;;;0.10;0.10;;;10.20;83.90;;;;;;5353717;26;20074;-85
2024/04/08 02:45:20;;;;;;;0.10;0.10;;;10.10;83.90;;;;;;5387497;26;20516;-85
2024/04/08 02:47:46;;;;;;;0.00;0.00;;;10.10;83.70;;;;;;5387973;26;20000;-85
2024/04/08 02:50:12;;;;;;;0.10;0.10;;;10.00;83.80;;;;;;5388221;26;20005;-85
2024/04/08 02:52:37;;;;;;;0.10;0.10;;;10.00;84.00;;;;;;5414994;26;20224;-85
2024/04/08 02:55:03;;;;;;;0.10;0.10;;;9.90;84.00;;;;;;5387700;26;20005;-85
2024/04/08 02:57:29;;;;;;;0.10;0.10;;;9.90;84.10;;;;;;5387881;26;20000;-85
2024/04/08 02:59:54;;;;;;;0.10;0.10;;;9.90;84.20;;;;;;5397692;26;20007;-85
2024/04/08 03:02:20;;;;;;;0.10;0.10;;;9.80;84.20;;;;;;5422608;26;20002;-84
2024/04/08 03:04:45;;;;;;;0.10;0.10;;;9.80;84.40;;;;;;5451288;26;20741;-85
2024/04/08 03:07:11;;;;;;;0.05;0.05;;;9.80;84.60;;;;;;5375816;26;20446;-85
2024/04/08 03:09:37;;;;;;;0.10;0.10;;;9.80;84.60;;;;;;5386957;26;20051;-85
2024/04/08 03:12:02;;;;;;;0.10;0.10;;;9.80;84.80;;;;;;5387361;26;19996;-85
2024/04/08 03:14:28;;;;;;;0.10;0.10;;;9.90;84.40;;;;;;5356855;26;19996;-85
2024/04/08 03:16:54;;;;;;;0.10;0.10;;;9.90;84.30;;;;;;5387497;26;20047;-85
2024/04/08 03:19:19;;;;;;;0.10;0.10;;;10.00;84.10;;;;;;5356584;26;19996;-85
2024/04/08 03:21:45;;;;;;;0.10;0.10;;;10.00;83.70;;;;;;5387954;26;19996;-85
2024/04/08 03:24:11;;;;;;;0.10;0.10;;;10.00;83.70;;;;;;5356624;26;20000;-85
2024/04/08 03:26:36;;;;;;;0.00;0.00;;;10.00;83.70;;;;;;5386408;26;20028;-85
2024/04/08 03:29:02;;;;;;;0.10;0.10;;;9.90;83.80;;;;;;5387863;26;20004;-85
2024/04/08 03:31:28;;;;;;;0.10;0.10;;;9.90;84.00;;;;;;5372009;26;19996;-84
2024/04/08 03:33:54;;;;;;;0.10;0.10;;;9.90;84.00;;;;;;5387778;26;19992;-85
2024/04/08 03:36:20;;;;;;;0.10;0.10;;;9.80;84.20;;;;;;5387192;26;20004;-85
2024/04/08 03:38:45;;;;;;;0.10;0.10;;;9.80;84.50;;;;;;5356555;26;20004;-85
2024/04/08 03:41:11;;;;;;;0.10;0.10;;;9.80;85.00;;;;;;5386935;26;20022;-85
2024/04/08 03:43:36;;;;;;;0.00;0.00;;;9.80;85.00;;;;;;5373405;26;20477;-85
2024/04/08 03:46:02;;;;;;;0.10;0.10;;;9.80;85.10;;;;;;5386464;26;20069;-85
2024/04/08 03:48:29;;;;;;;0.10;0.10;;;9.80;85.10;;;;;;5354899;26;20012;-85
2024/04/08 03:50:55;;;;;;;0.10;0.10;;;9.80;85.40;;;;;;5356237;26;20036;-85
2024/04/08 03:53:21;;;;;;;0.10;0.10;;;9.70;85.80;;;;;;5381864;26;20002;-85
2024/04/08 03:55:46;;;;;;;0.10;0.10;;;9.70;86.00;;;;;;5421777;26;20000;-85
2024/04/08 03:58:12;;;;;;;0.10;0.10;;;9.70;86.10;;;;;;5415714;26;20008;-85
2024/04/08 04:00:38;;;;;;;0.10;0.10;;;9.70;86.20;;;;;;5384991;26;20073;-85
2024/04/08 04:03:03;;;;;;;0.10;0.10;;;9.80;85.90;;;;;;5374657;26;19999;-85
2024/04/08 04:05:29;;;;;;;0.10;0.10;;;9.80;85.70;;;;;;5414717;26;20004;-85
2024/04/08 04:07:56;;;;;;;0.05;0.05;;;9.90;85.90;;;;;;5356203;26;20330;-85
2024/04/08 04:10:22;;;;;;;0.10;0.10;;;9.90;85.50;;;;;;5387225;26;20073;-85
2024/04/08 04:12:48;;;;;;;0.10;0.10;;;9.90;85.60;;;;;;5387258;26;20443;-85
2024/04/08 04:15:13;;;;;;;0.10;0.10;;;9.80;85.50;;;;;;5387047;26;20018;-85
2024/04/08 04:17:39;;;;;;;0.10;0.10;;;9.80;85.80;;;;;;5421436;26;20009;-85
2024/04/08 04:20:09;;;;;;;0.10;0.10;;;9.80;85.80;;;;;;5388220;26;20004;-85
2024/04/08 04:22:35;;;;;;;0.10;0.10;;;9.70;85.90;;;;;;5355185;26;20356;-85
2024/04/08 04:25:01;;;;;;;0.10;0.10;;;9.80;85.90;;;;;;5403267;26;20003;-85
2024/04/08 04:27:26;;;;;;;0.00;0.00;;;9.80;85.80;;;;;;5422540;26;20002;-85
2024/04/08 04:29:52;;;;;;;0.10;0.10;;;9.80;85.60;;;;;;5420558;26;20449;-85
2024/04/08 04:32:18;;;;;;;0.10;0.10;;;9.80;85.80;;;;;;5419639;26;20000;-85
2024/04/08 04:34:43;;;;;;;0.10;0.10;;;9.80;85.50;;;;;;5387186;26;20003;-85
2024/04/08 04:37:10;;;;;;;0.10;0.10;;;9.90;85.70;;;;;;5383987;26;20011;-85
2024/04/08 04:39:36;;;;;;;0.10;0.10;;;9.90;85.50;;;;;;5386738;26;20003;-85
2024/04/08 04:42:02;;;;;;;0.10;0.10;;;9.80;85.30;;;;;;5416515;26;20004;-85
2024/04/08 04:44:28;;;;;;;0.10;0.10;;;9.80;85.50;;;;;;5390343;26;20014;-85
2024/04/08 04:46:56;;;;;;;0.10;0.10;;;9.80;85.50;;;;;;5390299;26;20003;-85
2024/04/08 04:49:22;;;;;;;0.10;0.10;;;9.80;85.60;;;;;;5388929;26;19999;-82
2024/04/08 04:51:47;;;;;;;0.10;0.10;;;9.90;85.70;;;;;;5389808;26;20087;-76
2024/04/08 04:54:13;;;;;;;0.10;0.10;;;9.90;85.20;;;;;;5420408;26;20302;-75
2024/04/08 04:56:39;;;;;;;0.10;0.10;;;10.00;85.10;;;;;;5417137;26;20022;-75
2024/04/08 04:59:04;;;;;;;0.10;0.10;;;10.00;85.10;;;;;;5420186;26;20342;-75
2024/04/08 05:01:30;;;;;;;0.10;0.10;;;10.00;85.10;;;;;;5419669;26;20065;-76
2024/04/08 05:03:56;;;;;;;0.10;0.10;;;10.00;84.60;;;;;;5441707;26;20004;-76
2024/04/08 05:06:21;;;;;;;0.10;0.10;;;9.90;85.20;;;;;;5386720;26;19999;-76
2024/04/08 05:08:47;;;;;;;0.10;0.10;;;9.90;85.20;;;;;;5359409;26;20011;-76
2024/04/08 05:11:13;;;;;;;0.10;0.10;;;9.90;85.00;;;;;;5421291;26;20000;-77
2024/04/08 05:13:38;;;;;;;0.10;0.10;;;9.80;85.20;;;;;;5421524;26;20001;-77
2024/04/08 05:16:05;;;;;;;0.10;0.10;;;9.80;85.10;;;;;;5389907;26;20000;-80
2024/04/08 05:18:32;;;;;;;0.10;0.10;;;9.90;85.20;;;;;;5384919;26;20000;-76
2024/04/08 05:20:58;;;;;;;0.10;0.10;;;9.90;84.90;;;;;;5355141;26;20024;-76
2024/04/08 05:23:25;;;;;;;0.10;0.10;;;9.90;84.80;;;;;;5411039;26;19999;-75
2024/04/08 05:25:53;;;;;;;0.10;0.10;;;9.80;84.90;;;;;;5419948;26;20027;-76
2024/04/08 05:28:20;;;;;;;0.00;0.00;;;9.70;85.30;;;;;;5417949;26;20453;-76
2024/04/08 05:30:46;;;;;;;0.10;0.10;;;9.70;85.50;;;;;;5407621;26;20000;-77
2024/04/08 05:33:12;;;;;;;0.10;0.10;;;9.70;85.70;;;;;;5373502;26;20049;-76
2024/04/08 05:35:40;;;;;;;0.10;0.10;;;9.80;85.70;;;;;;5419945;26;20000;-79
2024/04/08 05:38:06;;;;;;;0.03;0.03;;;9.70;85.80;;;;;;5420925;26;19999;-81
2024/04/08 05:40:36;;;;;;;0.10;0.10;;;9.70;86.10;;;;;;5419917;26;19999;-80
2024/04/08 05:43:02;;;;;;;0.10;0.10;;;9.70;86.30;;;;;;5406914;26;20098;-82
2024/04/08 05:45:28;;;;;;;0.10;0.10;;;9.80;86.40;;;;;;5413731;26;20722;-78
2024/04/08 05:47:54;;;;;;;0.10;0.10;;;9.80;86.70;;;;;;5395420;26;20015;-81
2024/04/08 05:50:20;;;;;;;0.10;0.10;;;9.80;86.80;;;;;;5412666;26;19999;-83
2024/04/08 05:52:46;;;;;;;0.10;0.10;;;9.80;87.10;;;;;;5414274;26;20000;-81
2024/04/08 05:55:12;;;;;;;0.10;0.10;;;9.80;87.40;;;;;;5418792;26;20088;-82
2024/04/08 05:57:38;;;;;;;0.10;0.10;;;9.80;87.70;;;;;;5418801;26;20011;-81
2024/04/08 06:00:05;;;;;;;0.10;0.10;;;9.90;87.60;;;;;;5411872;26;20076;-80
2024/04/08 06:02:31;;;;;;;0.10;0.10;;;9.90;87.90;;;;;;5418340;26;20027;-80
2024/04/08 06:04:57;;;;;;;0.10;0.10;;;10.00;87.80;;;;;;5409030;26;19996;-81
2024/04/08 06:07:23;;;;;;;0.10;0.10;;;10.00;87.90;;;;;;5381008;26;20004;-81
2024/04/08 06:09:50;;;;;;;0.10;0.10;;;10.00;88.00;;;;;;5351004;26;20529;-81
2024/04/08 06:12:16;;;;;;;0.10;0.10;;;10.00;88.10;;;;;;5350209;26;20081;-80
2024/04/08 06:14:41;;;;;;;0.10;0.10;;;10.00;88.40;;;;;;5382039;26;20008;-80
2024/04/08 06:17:07;;;;;;;0.10;0.10;;;10.00;88.60;;;;;;5352108;26;19992;-81
2024/04/08 06:19:32;;;;;;;0.10;0.10;;;10.10;88.80;;;;;;5415922;26;20012;-80
2024/04/08 06:21:58;;;;;;;0.10;0.10;;;10.20;88.70;;;;;;5435565;26;20003;-80
2024/04/08 06:24:24;;;;;;;0.10;0.10;;;10.20;88.80;;;;;;5424596;26;20014;-77
2024/04/08 06:26:50;;;;;;;0.10;0.10;;;10.20;88.90;;;;;;5422486;26;20006;-78
2024/04/08 06:29:16;;;;;;;0.10;0.10;;;10.30;88.80;;;;;;5384503;26;19999;-78
2024/04/08 06:31:42;;;;;;;0.10;0.10;;;10.30;88.90;;;;;;5396152;26;20004;-78
2024/04/08 06:34:08;;;;;;;0.10;0.10;;;10.30;88.90;;;;;;5423900;26;20014;-77
2024/04/08 06:36:35;;;;;;;0.10;0.10;;;10.30;88.90;;;;;;5431220;26;19998;-78
2024/04/08 06:39:01;;;;;;;0.10;0.10;;;10.40;89.00;;;;;;5440679;26;19998;-77
2024/04/08 06:41:27;;;;;;;0.10;0.10;;;10.50;88.70;;;;;;5402262;26;20010;-77
2024/04/08 06:43:52;;;;;;;0.10;0.10;;;10.60;88.70;;;;;;5403451;26;20080;-78
2024/04/08 06:46:18;;;;;;;0.10;0.10;;;10.60;88.80;;;;;;5434525;26;20015;-78
2024/04/08 06:48:44;;;;;;;0.10;0.10;;;10.60;88.80;;;;;;5424778;26;19996;-77
2024/04/08 06:51:10;;;;;;;0.10;0.10;;;10.70;88.80;;;;;;5396251;26;20004;-77
2024/04/08 06:53:36;;;;;;;0.10;0.10;;;10.70;88.80;;;;;;5438192;26;20353;-77
2024/04/08 06:56:01;;;;;;;0.10;0.10;;;10.70;88.80;;;;;;5434955;26;19999;-77
2024/04/08 06:58:27;;;;;;;0.10;0.10;;;10.80;88.80;;;;;;5432086;26;20535;-77
2024/04/08 07:00:53;;;;;;;0.10;0.10;;;10.70;89.00;;;;;;5431461;26;20133;-77
2024/04/08 07:03:18;;;;;;;0.10;0.10;;;10.80;89.10;;;;;;5402625;26;20000;-77
2024/04/08 07:05:45;;;;;;;0.10;0.10;;;10.80;89.30;;;;;;5431139;26;19996;-79
2024/04/08 07:08:12;;;;;;;0.10;0.10;;;10.90;89.10;;;;;;5439369;26;20009;-80
2024/04/08 07:10:38;;;;;;;0.10;0.10;;;10.90;89.20;;;;;;5436164;26;20035;-80
2024/04/08 07:13:04;;;;;;;0.10;0.10;;;10.90;89.10;;;;;;5402307;26;20011;-79
2024/04/08 07:15:29;;;;;;;0.10;0.10;;;11.00;89.10;;;;;;5399258;26;20006;-79
2024/04/08 07:17:55;;;;;;;0.10;0.10;;;11.10;89.10;;;;;;5422675;26;20049;-79
2024/04/08 07:20:21;;;;;;;0.10;0.10;;;11.20;89.00;;;;;;5410451;26;20610;-79
2024/04/08 07:22:47;;;;;;;0.10;0.10;;;11.20;89.00;;;;;;5417783;26;19995;-79
2024/04/08 07:25:13;;;;;;;0.10;0.10;;;11.30;88.80;;;;;;5436667;26;20009;-79
2024/04/08 07:27:38;;;;;;;0.10;0.10;;;11.30;88.80;;;;;;5393935;26;20004;-79
2024/04/08 07:30:05;;;;;;;0.10;0.10;;;11.40;88.90;;;;;;5414951;26;20080;-79
2024/04/08 07:32:32;;;;;;;0.10;0.10;;;11.50;88.90;;;;;;5409779;26;20003;-79
2024/04/08 07:34:58;;;;;;;0.10;0.10;;;11.80;88.60;;;;;;5385573;26;20004;-79
2024/04/08 07:37:25;;;;;;;0.10;0.10;;;11.90;88.30;;;;;;5433215;26;20007;-79
2024/04/08 07:39:51;;;;;;;0.10;0.10;;;12.00;88.00;;;;;;5388812;26;20061;-79
2024/04/08 07:42:17;;;;;;;0.10;0.10;;;12.10;88.10;;;;;;5398414;26;20447;-78
2024/04/08 07:44:43;;;;;;;0.10;0.10;;;12.10;87.90;;;;;;5407688;26;20002;-78
2024/04/08 07:47:08;;;;;;;0.10;0.10;;;12.00;88.00;;;;;;5442917;26;19999;-78
2024/04/08 07:49:35;;;;;;;0.10;0.10;;;12.00;88.30;;;;;;5412243;26;19995;-79
2024/04/08 07:52:02;;;;;;;0.10;0.10;;;12.00;88.00;;;;;;5380851;26;20040;-78
2024/04/08 07:54:28;;;;;;;0.10;0.10;;;12.20;88.30;;;;;;5421420;26;20008;-78
2024/04/08 07:56:54;;;;;;;0.10;0.10;;;12.20;88.10;;;;;;5436173;26;19999;-78
2024/04/08 07:59:20;;;;;;;0.10;0.10;;;12.30;88.00;;;;;;5437650;26;20469;-78
2024/04/08 08:01:47;;;;;;;0.10;0.10;;;12.30;87.90;;;;;;5404924;26;20010;-78
2024/04/08 08:04:13;;;;;;;0.10;0.10;;;12.40;87.70;;;;;;5426748;26;20008;-78
2024/04/08 08:06:41;;;;;;;0.10;0.10;;;12.50;87.60;;;;;;5403719;26;20372;-78
2024/04/08 08:09:07;;;;;;;0.10;0.10;;;12.60;87.60;;;;;;5390071;26;20012;-78
2024/04/08 08:11:33;;;;;;;0.10;0.10;;;12.70;87.20;;;;;;5418612;26;20053;-79
2024/04/08 08:13:59;;;;;;;0.10;0.10;;;12.70;87.30;;;;;;5417273;26;19999;-79
2024/04/08 08:16:27;;;;;;;0.10;0.10;;;12.70;87.30;;;;;;5397540;26;20353;-78
2024/04/08 08:18:53;;;;;;;0.10;0.10;;;12.70;87.30;;;;;;5424284;26;20010;-78
2024/04/08 08:21:18;;;;;;;0.10;0.10;;;12.70;87.30;;;;;;5421607;26;19999;-78
2024/04/08 08:23:44;;;;;;;0.10;0.10;;;12.80;87.30;;;;;;5381843;26;20447;-78
2024/04/08 08:26:10;;;;;;;0.10;0.10;;;12.80;87.10;;;;;;5431596;26;20011;-78
2024/04/08 08:28:35;;;;;;;0.10;0.10;;;13.00;87.00;;;;;;5457294;26;19998;-82
2024/04/08 08:31:01;;;;;;;0.10;0.10;;;13.10;86.60;;;;;;5430643;26;20004;-78
2024/04/08 08:33:26;;;;;;;0.10;0.10;;;13.10;86.50;;;;;;5426105;26;20040;-78
2024/04/08 08:35:52;;;;;;;0.10;0.10;;;13.10;86.60;;;;;;5397030;26;20076;-78
2024/04/08 08:38:19;;;;;;;0.10;0.10;;;13.20;86.10;;;;;;5427865;26;20003;-79
2024/04/08 08:40:48;;;;;;;0.10;0.10;;;13.30;85.90;;;;;;5421131;26;19996;-78
2024/04/08 08:43:14;;;;;;;0.10;0.10;;;13.20;85.80;;;;;;5420461;26;20011;-78
2024/04/08 08:45:46;;;;;;;0.10;0.10;;;13.30;85.60;;;;;;5421282;26;20442;-78
2024/04/08 08:48:12;;;;;;;0.10;0.10;;;13.40;85.40;;;;;;5412201;26;20001;-78
2024/04/08 08:50:40;;;;;;;0.10;0.10;;;13.50;85.50;;;;;;5384889;26;20341;-77
2024/04/08 08:53:08;;;;;;;0.10;0.10;;;13.60;85.10;;;;;;5388137;26;20000;-78
2024/04/08 08:55:33;;;;;;;0.10;0.10;;;13.50;84.90;;;;;;5402864;26;20380;-78
2024/04/08 08:58:00;;;;;;;0.10;0.10;;;13.30;85.30;;;;;;5434053;26;19995;-79
2024/04/08 09:00:25;;;;;;;0.10;0.10;;;13.30;85.50;;;;;;5425210;26;19999;-79
2024/04/08 09:02:51;;;;;;;0.00;0.00;;;13.30;85.70;;;;;;5425393;26;20003;-79
2024/04/08 09:05:17;;;;;;;0.10;0.10;;;13.20;85.50;;;;;;5415307;26;20050;-79
2024/04/08 09:07:43;;;;;;;0.05;0.05;;;13.10;85.70;;;;;;5420392;26;20016;-79
2024/04/08 09:10:09;;;;;;;0.10;0.10;;;13.00;85.90;;;;;;5417087;26;20014;-79
2024/04/08 09:12:34;;;;;;;0.10;0.10;;;13.00;86.10;;;;;;5419297;26;20006;-79
2024/04/08 09:15:00;;;;;;;0.10;0.10;;;12.90;86.10;;;;;;5381615;26;20049;-79
2024/04/08 09:17:26;;;;;;;0.00;0.00;;;12.80;86.30;;;;;;5388872;26;20022;-78
2024/04/08 09:19:51;;;;;;;0.10;0.10;;;12.70;89.10;;;;;;5388391;26;20015;-78
2024/04/08 09:22:17;;;;;;;0.10;0.10;;;12.50;90.40;;;;;;5405725;26;20035;-78
2024/04/08 09:24:43;;;;;;;0.10;0.10;;;12.40;90.60;;;;;;5347033;26;19997;-78
2024/04/08 09:27:11;;;;;;;0.10;0.10;;;12.40;90.80;;;;;;5364027;26;20006;-78
2024/04/08 09:29:37;;;;;;;0.05;0.05;;;12.50;90.40;;;;;;5383285;26;20004;-78
2024/04/08 09:32:08;;;;;;;0.08;0.08;;;12.70;90.30;;;;;;5367952;26;20000;-78
2024/04/08 09:34:33;;;;;;;0.00;0.00;;;12.80;90.10;;;;;;5384812;26;20000;-78
2024/04/08 09:37:00;;;;;;;0.10;0.10;;;12.70;90.40;;;;;;5372425;26;20016;-77
2024/04/08 09:39:26;;;;;;;0.10;0.10;;;12.50;91.10;;;;;;5362252;26;20011;-78
2024/04/08 09:41:53;;;;;;;0.10;0.10;;;12.40;91.50;;;;;;5384300;26;20059;-78
2024/04/08 09:44:20;;;;;;;0.10;0.10;;;12.60;92.10;;;;;;5378094;26;20004;-77
2024/04/08 09:46:46;;;;;;;0.10;0.10;;;12.60;91.90;;;;;;5373691;26;20466;-77
2024/04/08 09:49:12;;;;;;;0.00;0.00;;;12.70;91.90;;;;;;5419380;26;19999;-77
2024/04/08 09:51:40;;;;;;;0.10;0.10;;;12.80;91.70;;;;;;5382790;26;20379;-78
2024/04/08 09:54:08;;;;;;;0.10;0.10;;;12.80;91.70;;;;;;5375785;26;20001;-79
2024/04/08 09:56:37;;;;;;;0.10;0.10;;;12.80;91.50;;;;;;5375114;26;20015;-78
2024/04/08 09:59:13;;;;;;;0.10;0.10;;;13.00;91.40;;;;;;5365890;26;20005;-77
2024/04/08 10:01:39;;;;;;;0.10;0.10;;;13.10;91.00;;;;;;5383594;26;20429;-77
2024/04/08 10:04:21;;;;;;;0.10;0.10;;;13.20;90.70;;;;;;5406311;26;19995;-78
2024/04/08 10:06:49;;;;;;;0.03;0.03;;;13.10;90.30;;;;;;5364075;26;19996;-78
2024/04/08 10:09:15;;;;;;;0.10;0.10;;;13.20;90.30;;;;;;5384301;26;20004;-78
2024/04/08 10:11:51;;;;;;;0.10;0.10;;;13.20;90.10;;;;;;5381151;26;20004;-78
2024/04/08 10:14:23;;;;;;;0.10;0.10;;;13.20;90.10;;;;;;5384314;26;20478;-77
2024/04/08 10:16:50;;;;;;;0.10;0.10;;;13.20;90.20;;;;;;5379956;26;20004;-78
2024/04/08 10:19:19;;;;;;;0.00;0.00;;;13.10;90.20;;;;;;5382341;26;20011;-77
2024/04/08 10:21:45;;;;;;;0.00;0.00;;;13.10;90.10;;;;;;5371223;26;20000;-78
2024/04/08 10:24:36;;;;;;;0.10;0.10;;;13.20;90.10;;;;;;5396793;26;19999;-77
2024/04/08 10:27:07;;;;;;;0.10;0.10;;;13.20;90.20;;;;;;5361566;26;20004;-78
2024/04/08 10:29:37;;;;;;;0.10;0.10;;;13.30;90.20;;;;;;5419269;26;20469;-79
2024/04/08 10:32:03;;;;;;;0.10;0.10;;;13.30;90.20;;;;;;5361281;26;20003;-78
2024/04/08 10:34:29;;;;;;;0.10;0.10;;;13.40;90.10;;;;;;5399944;26;20000;-78
2024/04/08 10:36:55;;;;;;;0.00;0.00;;;13.50;90.00;;;;;;5357047;26;20349;-79
2024/04/08 10:39:27;;;;;;;0.10;0.10;;;13.70;90.10;;;;;;5418482;26;20077;-78
2024/04/08 10:41:57;;;;;;;0.10;0.10;;;13.80;89.80;;;;;;5387807;26;20080;-78
2024/04/08 10:44:24;;;;;;;0.10;0.10;;;14.00;89.50;;;;;;5387922;26;20003;-78
2024/04/08 10:46:50;;;;;;;0.10;0.10;;;14.10;89.40;;;;;;5417201;26;20014;-78
2024/04/08 10:49:16;;;;;;;0.10;0.10;;;14.30;89.20;;;;;;5419339;26;19996;-78
2024/04/08 10:51:43;;;;;;;0.10;0.10;;;14.30;88.90;;;;;;5419242;26;20068;-79
2024/04/08 10:54:08;;;;;;;0.10;0.10;;;14.40;89.00;;;;;;5393682;26;20004;-79
2024/04/08 10:56:34;;;;;;;0.00;0.00;;;14.40;88.90;;;;;;5383144;26;19997;-78
2024/04/08 10:59:00;;;;;;;0.05;0.05;;;14.40;88.90;;;;;;5382760;26;20416;-79
2024/04/08 11:01:25;;;;;;;0.10;0.10;;;14.50;89.00;;;;;;5415630;26;20349;-78
2024/04/08 11:03:52;;;;;;;0.00;0.00;;;14.50;88.60;;;;;;5433931;26;19999;-78
2024/04/08 11:06:17;;;;;;;0.10;0.10;;;14.60;88.90;;;;;;5457778;26;19999;-79
2024/04/08 11:08:44;;;;;;;0.10;0.10;;;14.80;88.90;;;;;;5439008;26;20434;-78
2024/04/08 11:11:09;;;;;;;0.10;0.10;;;14.90;88.50;;;;;;5391340;26;20019;-78
2024/04/08 11:13:35;;;;;;;0.10;0.10;;;15.20;88.50;;;;;;5391537;26;20003;-78
2024/04/08 11:16:01;;;;;;;0.10;0.10;;;15.30;87.30;;;;;;5389640;26;20013;-78
2024/04/08 11:18:27;;;;;;;0.10;0.10;;;15.50;87.10;;;;;;5420407;26;20860;-78
2024/04/08 11:20:53;;;;;;;0.10;0.10;;;15.70;87.10;;;;;;5423157;26;20088;-78
2024/04/08 11:23:19;;;;;;;0.10;0.10;;;15.70;86.50;;;;;;5388769;26;20014;-78
2024/04/08 11:25:46;;;;;;;0.00;0.00;;;15.70;85.90;;;;;;5422891;26;20007;-79
2024/04/08 11:28:12;;;;;;;0.10;0.10;;;15.80;85.80;;;;;;5382267;26;20008;-78
2024/04/08 11:30:38;;;;;;;0.10;0.10;;;15.60;85.70;;;;;;5407297;26;19995;-78
2024/04/08 11:33:05;;;;;;;0.10;0.10;;;15.60;85.50;;;;;;5389703;26;20000;-77
2024/04/08 11:35:31;;;;;;;0.00;0.00;;;15.50;85.50;;;;;;5378497;26;20011;-77
2024/04/08 11:37:57;;;;;;;0.10;0.10;;;15.60;85.80;;;;;;5386507;26;20036;-77
2024/04/08 11:40:22;;;;;;;0.10;0.10;;;15.70;85.70;;;;;;5366269;26;19999;-77
2024/04/08 11:42:48;;;;;;;0.10;0.10;;;15.90;85.60;;;;;;5422230;26;19995;-77
2024/04/08 11:45:14;;;;;;;0.10;0.10;;;16.20;84.50;;;;;;5398927;26;20014;-78
2024/04/08 11:47:39;;;;;;;0.10;0.10;;;16.40;84.80;;;;;;5412097;26;20000;-79
2024/04/08 11:50:06;;;;;;;0.10;0.10;;;16.40;83.50;;;;;;5421775;26;20015;-78
2024/04/08 11:52:33;;;;;;;0.00;0.00;;;16.30;82.10;;;;;;5389761;26;20015;-78
2024/04/08 11:54:59;;;;;;;0.10;0.10;;;16.20;81.60;;;;;;5383917;26;20000;-78
2024/04/08 11:57:24;;;;;;;0.00;0.00;;;16.20;82.10;;;;;;5355712;26;20342;-78
2024/04/08 11:59:50;;;;;;;0.10;0.10;;;16.20;82.40;;;;;;5364149;26;20014;-78
2024/04/08 12:02:16;;;;;;;0.10;0.10;;;16.20;82.10;;;;;;5390423;26;20014;-78
2024/04/08 12:04:46;;;;;;;0.10;0.10;;;16.30;81.90;;;;;;5417760;26;20019;-78
2024/04/08 12:07:12;;;;;;;0.10;0.10;;;16.70;82.30;;;;;;5385926;26;20007;-78
2024/04/08 12:09:41;;;;;;;0.10;0.10;;;17.00;81.70;;;;;;5375134;26;19996;-78
2024/04/08 12:12:11;;;;;;;0.00;0.00;;;17.20;80.50;;;;;;5383579;26;20011;-77
2024/04/08 12:14:37;;;;;;;0.08;0.08;;;17.10;79.80;;;;;;5382907;26;20007;-77
2024/04/08 12:17:03;;;;;;;0.10;0.10;;;16.90;78.80;;;;;;5382691;26;20003;-78
2024/04/08 12:19:29;;;;;;;0.10;0.10;;;16.80;78.00;;;;;;5411602;26;20004;-76
2024/04/08 12:21:55;;;;;;;0.10;0.10;;;16.80;79.20;;;;;;5391414;26;20044;-78
2024/04/08 12:24:20;;;;;;;0.10;0.10;;;16.90;79.50;;;;;;5404630;26;19996;-78
2024/04/08 12:26:46;;;;;;;0.10;0.10;;;17.10;79.50;;;;;;5399891;26;20003;-78
2024/04/08 12:29:11;;;;;;;0.10;0.10;;;17.30;77.20;;;;;;5399711;26;20349;-78
2024/04/08 12:31:37;;;;;;;0.10;0.10;;;17.60;76.30;;;;;;5406201;26;20445;-77
2024/04/08 12:34:05;;;;;;;0.10;0.10;;;17.70;75.80;;;;;;5403918;26;20011;-77
2024/04/08 12:36:34;;;;;;;0.10;0.10;;;17.70;75.40;;;;;;5402810;26;19999;-77
2024/04/08 12:39:00;;;;;;;0.10;0.10;;;17.80;74.70;;;;;;5403020;26;20077;-77
2024/04/08 12:41:25;;;;;;;0.10;0.10;;;18.00;74.40;;;;;;5403092;26;19995;-77
2024/04/08 12:43:51;;;;;;;0.10;0.10;;;18.10;74.20;;;;;;5407589;26;20000;-78